Elliot Chaparral Reserve, California Weather observations

Data are for 10 minute period ending at time listed.
 Day   Time   Solar   Ave.   Ave.  Ave.  Vector  Max.   Baro.   Total    
  of    of     Rad.   Air    Rel.  Wind   Wind   Wind  Press.  Precip.   
Year   Day            Temp.  Hum.  Speed  Dir.   Gust                    
2017   (PST)  Kw/m2    F      %     mph   deg.    mph    mb.     in.     
-------------------------------------------------------------------------
  83   17:00   0.16   61.8    55    7.7   329    12.6   992.4    0.00 
  83   17:10   0.13   61.7    56    7.4   313     9.9   992.2    0.00 
  83   17:20   0.08   61.2    55    9.3   321    14.2   992.3    0.00 
  83   17:30   0.07   60.7    53    9.4   322    12.7   992.5    0.00 
  83   17:40   0.04   60.5    56    6.3   333    10.0   992.3    0.00 
  83   17:50   0.01   59.5    60    7.0   332     9.9   992.1    0.00 
  83   18:00   0.00   58.2    63    6.5   328     9.6   992.0    0.00 
  83   18:10   0.00   57.8    64    7.6   318    12.1   992.0    0.00 
  83   18:20   0.00   57.5    64    8.2   318    11.2   992.1    0.00 
  83   18:30   0.00   57.1    64    7.7   323    12.1   992.0    0.00 
  83   18:40   0.00   56.7    66    6.7   326     9.9   992.1    0.00 
  83   18:50   0.00   56.1    68    7.5   320    10.7   992.1    0.00 
  83   19:00   0.00   55.9    70    7.8   326    11.0   992.2    0.00 
  83   19:10   0.00   55.6    73    6.6   319     8.8   992.5    0.00 
  83   19:20   0.00   55.3    77    6.4   309     9.1   992.7    0.00 
  83   19:30   0.00   54.8    79    8.0   306    11.0   992.9    0.00 
  83   19:40   0.00   55.0    78    5.7   312     9.5   992.9    0.00 
  83   19:50   0.00   54.5    79    3.5   328     4.6   992.8    0.00 
  83   20:00   0.00   54.3    80    3.3   352     4.7   992.8    0.00 
  83   20:10   0.00   54.3    80    3.5   355     4.2   992.8    0.00 
  83   20:20   0.00   54.1    81    4.6   341     5.8   992.9    0.00 
  83   20:30   0.00   53.7    83    4.2   348     5.6   993.0    0.00 
  83   20:40   0.00   53.9    85    5.6   346     6.8   993.1    0.00 
  83   20:50   0.00   53.9    86    5.6   341     7.9   993.1    0.00 
  83   21:00   0.00   54.0    87    6.2   343     9.1   993.1    0.00 
  83   21:10   0.00   54.1    88    5.2   356     6.7   993.1    0.00 
  83   21:20   0.00   53.9    87    3.0    33     5.9   993.1    0.00 
  83   21:30   0.00   53.8    88    4.2     1     5.6   993.1    0.00 
  83   21:40   0.00   53.8    88    3.2    26     5.0   993.1    0.00 
  83   21:50   0.00   53.9    87    2.7    34     4.5   993.0    0.00 
  83   22:00   0.00   54.0    87    4.3     7     5.2   993.0    0.00 
  83   22:10   0.00   53.7    87    4.4   356     5.2   993.1    0.00 
  83   22:20   0.00   53.5    88    4.3   353     5.7   993.0    0.00 
  83   22:30   0.00   53.7    88    3.9   358     6.4   993.0    0.00 
  83   22:40   0.00   53.6    88    3.7     2     5.0   992.8    0.00 
  83   22:50   0.00   53.8    89    3.8     2     5.6   992.8    0.00 
  83   23:00   0.00   53.8    89    3.3    17     4.6   992.6    0.00 
  83   23:10   0.00   53.8    89    3.7     4     4.5   992.7    0.00 
  83   23:20   0.00   53.9    90    4.1   351     5.6   992.7    0.00 
  83   23:30   0.00   54.1    90    4.8   354     5.8   992.6    0.00 
  83   23:40   0.00   54.2    89    4.2     1     5.3   992.6    0.00 
  83   23:50   0.00   54.2    90    4.1     1     5.9   992.6    0.00 
  84    0:00   0.00   54.2    90    3.9    10     5.9   992.5    0.00 
  84    0:10   0.00   54.2    90    3.7   351     5.4   992.4    0.00 
  84    0:20   0.00   53.9    90    3.3    17     4.5   992.3    0.00 
  84    0:30   0.00   53.8    90    3.3    35     4.7   992.1    0.00 
  84    0:40   0.00   53.3    90    4.2    66     5.6   991.8    0.00 
  84    0:50   0.00   53.1    91    4.2    67     5.0   991.7    0.00 
  84    1:00   0.00   53.0    91    4.4    52     5.3   991.6    0.00 
  84    1:10   0.00   53.1    91    5.3    58     6.1   991.4    0.00 
  84    1:20   0.00   52.9    91    5.0    57     6.3   991.2    0.00 
  84    1:30   0.00   52.8    90    5.4    77     6.9   991.0    0.00 
  84    1:40   0.00   52.4    91    5.0    69     6.6   990.9    0.00 
  84    1:50   0.00   52.7    90    3.3    21     4.4   991.1    0.00 
  84    2:00   0.00   52.6    90    4.6    66     5.6   990.7    0.00 
  84    2:10   0.00   52.1    91    4.9    80     6.6   990.4    0.00 
  84    2:20   0.00   52.1    91    4.9    71     6.0   990.2    0.00 
  84    2:30   0.00   52.0    91    4.0    70     5.3   990.0    0.00 
  84    2:40   0.00   51.9    90    3.6    86     4.9   989.8    0.00 
  84    2:50   0.00   51.7    90    3.7    85     5.0   989.6    0.00 
  84    3:00   0.00   51.5    90    1.7    37     4.0   989.7    0.00 
  84    3:10   0.00   51.2    90    3.5   307     5.0   989.8    0.00 
  84    3:20   0.00   51.2    92    3.6   295     4.5   989.7    0.00 
  84    3:30   0.00   51.6    92    2.7   290     3.2   989.6    0.00 
  84    3:40   0.00   51.7    91    2.9   281     4.1   989.5    0.00 
  84    3:50   0.00   51.9    91    3.3   290     5.0   989.3    0.00 
  84    4:00   0.00   51.5    91    4.6   292     5.9   989.5    0.00 
  84    4:10   0.00   50.8    92    4.6   308     5.4   989.5    0.00 
  84    4:20   0.00   50.6    93    5.4   313     6.5   989.6    0.00 
  84    4:30   0.00   50.6    94    4.7   334     5.8   989.6    0.00 
  84    4:40   0.00   50.8    94    6.8   340     9.2   989.7    0.00 
  84    4:50   0.00   50.6    95    7.9   337     9.6   989.9    0.00 
  84    5:00   0.00   50.8    95    7.0   342     8.6   989.9    0.00 
  84    5:10   0.00   51.2    95    6.6   344    10.7   990.0    0.00 
  84    5:20   0.00   51.7    95    6.6   345     9.9   990.2    0.00 
  84    5:30   0.00   51.8    94    5.8   357     8.2   990.1    0.00 
  84    5:40   0.00   51.6    94    5.7     1     9.0   990.1    0.00 
  84    5:50   0.00   51.3    93    5.1    21     6.7   990.2    0.00 
  84    6:00   0.00   50.6    94    5.3    40     6.9   990.2    0.00 
  84    6:10   0.02   51.3    94    6.3    32     8.6   990.3    0.00 
  84    6:20   0.03   51.9    93    5.8    22     8.6   990.5    0.00 
  84    6:30   0.03   52.2    92    4.1    28     6.6   990.5    0.00 
  84    6:40   0.06   52.3    92    3.9     6     7.0   990.7    0.00 
  84    6:50   0.13   53.0    91    2.9   357     4.1   990.9    0.00 
  84    7:00   0.19   54.7    86    2.7    10     4.5   991.1    0.00 
  84    7:10   0.22   55.6    83    3.7   358     6.1   991.1    0.00 
  84    7:20   0.26   55.5    83    4.6   342     7.7   991.2    0.00 
  84    7:30   0.22   55.7    82    5.6   336     8.6   991.4    0.00 
  84    7:40   0.24   55.9    82    6.9   332    12.4   991.4    0.00 
  84    7:50   0.17   55.4    82    6.7   319     9.1   991.6    0.00 
  84    8:00   0.24   55.8    80    7.2   324    11.0   991.6    0.00 
  84    8:10   0.23   56.1    78    6.1   331    10.2   991.6    0.00 
  84    8:20   0.30   57.2    74    9.0   331    13.8   991.5    0.00 
  84    8:30   0.38   57.2    72    9.1   330    12.5   991.5    0.00 
  84    8:40   0.37   58.7    69    7.8   328    14.8   991.6    0.00 
  84    8:50   0.45   58.9    68    9.9   342    13.4   991.7    0.00 
  84    9:00   0.36   58.9    69    8.9   332    15.1   991.7    0.00 
  84    9:10   0.23   58.7    70    6.1   328    10.4   991.7    0.00 
  84    9:20   0.29   58.8    70    7.3   338    10.7   991.7    0.00 
  84    9:30   0.34   59.2    69    8.0   347    13.4   991.6    0.00 
  84    9:40   0.31   59.3    69    6.3   338    12.3   991.5    0.00 
  84    9:50   0.37   59.7    66    6.8     7     9.6   991.4    0.00 
  84   10:00   0.23   59.9    65    5.7   345    12.4   991.4    0.00 
  84   10:10   0.31   59.6    67    8.1   334    11.2   991.3    0.00 
  84   10:20   0.34   59.8    67    7.1   335    11.2   991.3    0.00 
  84   10:30   0.55   60.7    66    5.1   320    10.0   991.1    0.00 
  84   10:40   0.71   62.2    62    5.0   336     8.3   990.9    0.00 
  84   10:50   0.59   61.7    63    4.8   352     7.2   990.8    0.00 
  84   11:00   0.51   62.7    62    7.5   296    12.3   990.6    0.00 
  84   11:10   0.77   63.5    61    6.8   309    11.2   990.6    0.00 
  84   11:20   0.54   63.3    61    7.9   279    12.3   990.5    0.00 
  84   11:30   0.41   62.9    62    7.4   280    12.9   990.4    0.00 
  84   11:40   0.30   62.7    63    6.3   312    10.8   990.4    0.00 
  84   11:50   0.78   63.4    60    5.0   301     9.6   990.3    0.00 
  84   12:00   0.41   64.5    59    4.4   342    10.3   990.2    0.00 
  84   12:10   0.54   64.2    59    5.4   341     8.6   990.0    0.00 
  84   12:20   0.84   64.9    58    7.1   293    11.4   989.9    0.00 
  84   12:30   0.78   65.3    56    7.0   284    10.3   989.7    0.00 
  84   12:40   0.62   65.9    56    7.3   315    13.0   989.7    0.00 
  84   12:50   0.63   66.3    56   10.4   274    14.2   989.6    0.00 
  84   13:00   0.51   65.8    57   10.0   313    17.1   989.5    0.00 
  84   13:10   0.49   65.4    57   10.2   297    15.8   989.4    0.00 
  84   13:20   0.44   65.1    58   13.6   270    19.4   989.3    0.00 
  84   13:30   0.45   64.2    60   15.6   285    21.2   989.3    0.00 
  84   13:40   0.39   63.5    62   13.8   289    19.1   989.3    0.00 
  84   13:50   0.53   63.5    62   12.2   287    15.9   989.3    0.00 
  84   14:00   0.64   64.5    60   12.5   269    16.9   989.2    0.00 
  84   14:10   0.46   63.9    61   11.3   275    17.5   989.1    0.00 
  84   14:20   0.50   63.7    61   10.8   286    16.5   989.0    0.00 
  84   14:30   0.53   64.1    60   10.6   285    16.4   989.0    0.00 
  84   14:40   0.58   64.6    59   11.9   290    16.5   988.9    0.00 
  84   14:50   0.52   65.3    58   10.6   295    17.3   988.8    0.00 
  84   15:00   0.38   64.4    59   10.5   316    15.6   988.6    0.00 
  84   15:10   0.36   63.4    61   11.6   314    16.8   988.5    0.00 
  84   15:20   0.50   64.9    59   10.3   309    15.1   988.4    0.00 
  84   15:30   0.45   64.2    60   11.3   288    17.0   988.1    0.00 
  84   15:40   0.44   64.6    60   12.1   288    16.7   988.0    0.00 
  84   15:50   0.39   64.2    61    9.5   287    13.1   987.9    0.00 
  84   16:00   0.38   64.4    60   10.5   284    15.0   987.8    0.00 
  84   16:10   0.34   64.4    60   11.3   284    16.4   987.7    0.00 
  84   16:20   0.30   64.2    61    8.9   281    12.5   987.8    0.00 
  84   16:30   0.27   63.7    62   11.4   282    16.4   987.8    0.00 
  84   16:40   0.23   63.4    64   10.4   286    16.2   987.8    0.00 
  84   16:50   0.20   63.2    65    9.4   281    14.2   987.8    0.00 

Return to Elliot Chaparral Reserve graphs page.


Western Regional Climate Center,wrcc@dri.edu